Flight Track Log - Related Links

Times and Time Zones

All times are in EDT time to prevent confusion due to time zone crossing. See the PKW629 flight status page for this flight to view local times or setup timezone preferences in your user account.

Time Position Orientation Groundspeed Altitude Reporting Facility
EDT Latitude Longitude Course Direction KTS MPH feet Rate Location/Type
Wed 06:49:58 AM 42.1267 -89.1186 200° South 138 159 3,800  Level Chicago Center
Wed 06:50:59 AM 42.0828 -89.1458 205° Southwest 160 184 5,600 1,672 Climbing Chicago Center
Wed 06:52:00 AM 42.0406 -89.1675 201° Southwest 171 197 7,200 1,525 Climbing Chicago Center
Wed 06:53:01 AM 41.9928 -89.1919 201° Southwest 182 209 8,700 1,488 Climbing Chicago Center
Wed 06:54:01 AM 41.9464 -89.2167 202° Southwest 181 208 10,200 1,388 Climbing Chicago Center
Wed 06:55:00 AM 41.8248 -89.2626 200° South  Level FlightAware Approximate
Wed 06:55:02 AM 41.8992 -89.2397 200° South 181 208 11,500  Level Chicago Center
Wed 06:56:03 AM 41.8511 -89.2622 199° South 184 212 12,700 1,140 Climbing Chicago Center
Wed 06:57:03 AM 41.7914 -89.2903 199° South 187 215 13,800 1,041 Climbing Chicago Center
Wed 06:58:04 AM 41.7394 -89.3156 200° South 196 226 14,800 885 Climbing Chicago Center
Wed 06:59:05 AM 41.6844 -89.3400 198° South 204 235 15,600 836 Climbing Chicago Center
Wed 07:00:06 AM 41.6308 -89.3658 200° South 206 237 16,500 843 Climbing Chicago Center
Wed 07:01:06 AM 41.5761 -89.3928 200° South 209 241 17,300 694 Climbing Chicago Center
Wed 07:02:07 AM 41.5178 -89.4206 200° South 214 246 17,900 443 Climbing Chicago Center
Wed 07:03:08 AM 41.4586 -89.4517 202° Southwest 225 259 18,200 98 Climbing Chicago Center
Wed 07:04:09 AM 41.3911 -89.4814 198° South 251 289 18,100 -98 Descending Chicago Center
Wed 07:05:10 AM 41.3222 -89.5147 200° South 261 300 18,000 -50 Descending Chicago Center
Wed 07:06:10 AM 41.2503 -89.5453 198° South 270 311 18,000 50 Level Chicago Center
Wed 07:07:11 AM 41.1797 -89.5808 201° Southwest 271 312 18,100  Climbing Chicago Center
Wed 07:08:12 AM 41.1194 -89.6381 216° Southwest 271 312 18,000 -49 Descending Chicago Center
Wed 07:09:13 AM 41.0706 -89.7106 228° Southwest 265 305 18,000  Level Chicago Center
Wed 07:10:14 AM 41.0194 -89.7817 226° Southwest 267 307 18,000  Level Chicago Center
Wed 07:11:15 AM 40.9617 -89.8594 225° Southwest 268 308 18,000  Level Chicago Center
Wed 07:12:16 AM 40.9119 -89.9319 228° Southwest 269 310 18,000  Level Chicago Center
Wed 07:13:17 AM 40.8583 -90.0019 225° Southwest 271 312 18,000  Level Chicago Center
Wed 07:14:18 AM 40.8056 -90.0717 225° Southwest 270 311 18,000  Level Chicago Center
Wed 07:15:19 AM 40.7550 -90.1428 227° Southwest 268 308 18,000  Level Chicago Center
Wed 07:16:21 AM 40.7006 -90.2114 224° Southwest 271 312 18,000  Level Chicago Center
Wed 07:17:22 AM 40.6447 -90.2856 225° Southwest 267 307 18,000  Level Chicago Center
Wed 07:18:23 AM 40.5928 -90.3553 226° Southwest 268 308 18,000  Level Chicago Center
Wed 07:19:24 AM 40.5403 -90.4233 225° Southwest 267 307 18,000  Level Chicago Center
Wed 07:20:26 AM 40.4872 -90.4919 225° Southwest 266 306 18,000  Level Chicago Center
Wed 07:21:27 AM 40.4267 -90.5789 228° Southwest 271 312 18,000  Level Chicago Center
Wed 07:22:28 AM 40.3764 -90.6489 227° Southwest 265 305 18,000  Level Chicago Center
Wed 07:23:30 AM 40.3247 -90.7183 226° Southwest 266 306 18,000 49 Level Chicago Center
Wed 07:24:31 AM 40.2731 -90.7864 225° Southwest 265 305 18,100  Climbing Chicago Center
Wed 07:25:32 AM 40.2197 -90.8531 224° Southwest 264 304 18,000 -68 Descending Chicago Center
Wed 07:25:59 AM 40.1992 -90.8811 226° Southwest 264 304 18,000 69 Level Kansas City Center
Wed 07:26:59 AM 40.1489 -90.9522 227° Southwest 266 306 18,100  Climbing Kansas City Center
Wed 07:28:00 AM 40.0969 -91.0233 226° Southwest 266 306 18,000 -49 Descending Kansas City Center
Wed 07:29:01 AM 40.0422 -91.0928 224° Southwest 272 313 18,000  Level Kansas City Center
Wed 07:30:02 AM 39.9889 -91.1597 224° Southwest 271 312 18,000  Level Kansas City Center
Wed 07:31:03 AM 39.9356 -91.2261 224° Southwest 268 308 18,000  Level Kansas City Center
Wed 07:32:04 AM 39.8753 -91.3100 227° Southwest 267 307 18,000 49 Level Kansas City Center
Wed 07:33:05 AM 39.8286 -91.3825 230° Southwest 265 305 18,100  Climbing Kansas City Center
Wed 07:34:05 AM 39.7722 -91.4464 221° Southwest 266 306 18,000 -50 Descending Kansas City Center
Wed 07:35:06 AM 39.7203 -91.5119 224° Southwest 264 304 18,000  Level Kansas City Center
Wed 07:36:07 AM 39.6683 -91.5808 226° Southwest 267 307 18,000  Level Kansas City Center
Wed 07:37:08 AM 39.6164 -91.6475 225° Southwest 265 305 18,000  Level Kansas City Center
Wed 07:38:09 AM 39.5597 -91.7183 224° Southwest 262 302 18,000  Level Kansas City Center
Wed 07:39:10 AM 39.5122 -91.7794 225° Southwest 264 304 18,000  Level Kansas City Center
Wed 07:40:11 AM 39.4614 -91.8472 226° Southwest 263 303 18,000  Level Kansas City Center
Wed 07:41:12 AM 39.4097 -91.9117 224° Southwest 261 300 18,000  Level Kansas City Center
Wed 07:42:13 AM 39.3481 -91.9922 225° Southwest 262 302 18,000  Level Kansas City Center
Wed 07:43:14 AM 39.2961 -92.0581 224° Southwest 263 303 18,000  Level Kansas City Center
Wed 07:44:15 AM 39.2472 -92.1186 224° Southwest 263 303 18,000  Level Kansas City Center
Wed 07:45:16 AM 39.1956 -92.1844 225° Southwest 262 302 18,000 -49 Level Kansas City Center
Wed 07:46:17 AM 39.1436 -92.2497 224° Southwest 261 300 17,900 -49 Descending Kansas City Center
Wed 07:47:18 AM 39.0897 -92.3111 221° Southwest 260 299 17,900 49 Level Kansas City Center
Wed 07:48:19 AM 39.0292 -92.3894 225° Southwest 256 295 18,000 49 Climbing Kansas City Center
Wed 07:49:20 AM 38.9800 -92.4575 227° Southwest 258 297 18,000  Level Kansas City Center
Wed 07:50:21 AM 38.9272 -92.5178 222° Southwest 256 295 18,000  Level Kansas City Center
Wed 07:51:22 AM 38.8775 -92.5822 225° Southwest 254 292 18,000  Level Kansas City Center
Wed 07:52:24 AM 38.8269 -92.6472 225° Southwest 255 293 18,000 -49 Level Kansas City Center
Wed 07:53:25 AM 38.7764 -92.7103 224° Southwest 255 293 17,900 49 Descending Kansas City Center
Wed 07:54:26 AM 38.7264 -92.7725 224° Southwest 252 290 18,100 98 Climbing Kansas City Center
Wed 07:55:27 AM 38.6772 -92.8339 224° Southwest 250 288 18,100  Level Kansas City Center
Wed 07:56:28 AM 38.6267 -92.8958 224° Southwest 250 288 18,100  Level Kansas City Center
Wed 07:57:29 AM 38.5756 -92.9556 222° Southwest 250 288 18,100  Level Kansas City Center
Wed 07:58:30 AM 38.5267 -93.0206 226° Southwest 251 289 18,100 -49 Level Kansas City Center
Wed 07:59:31 AM 38.4758 -93.0847 225° Southwest 254 292 18,000 -49 Descending Kansas City Center
Wed 08:00:33 AM 38.4136 -93.1594 223° Southwest 256 295 18,000  Level Kansas City Center
Wed 08:01:34 AM 38.3625 -93.2219 224° Southwest 255 293 18,000  Level Kansas City Center
Wed 08:02:35 AM 38.3122 -93.2850 225° Southwest 255 293 18,000 49 Level Kansas City Center
Wed 08:03:36 AM 38.2600 -93.3453 222° Southwest 254 292 18,100  Climbing Kansas City Center
Wed 08:04:37 AM 38.2081 -93.4058 222° Southwest 252 290 18,000 -49 Descending Kansas City Center
Wed 08:05:38 AM 38.1567 -93.4675 223° Southwest 253 291 18,000  Level Kansas City Center
Wed 08:06:40 AM 38.1050 -93.5292 223° Southwest 254 292 18,000  Level Kansas City Center
Wed 08:07:41 AM 38.0536 -93.5925 224° Southwest 256 295 18,000  Level Kansas City Center
Wed 08:08:42 AM 38.0017 -93.6547 223° Southwest 257 296 18,000 49 Level Kansas City Center
Wed 08:09:43 AM 37.9497 -93.7158 223° Southwest 256 295 18,100  Climbing Kansas City Center
Wed 08:10:44 AM 37.8972 -93.7772 223° Southwest 255 293 18,000  Descending Kansas City Center
Wed 08:11:46 AM 37.8428 -93.8411 223° Southwest 255 293 18,100  Climbing Kansas City Center
Wed 08:12:47 AM 37.7558 -93.8556 187° South 275 316 18,000 -49 Descending Kansas City Center
Wed 08:13:48 AM 37.6817 -93.8619 184° South 270 311 18,000 49 Level Kansas City Center
Wed 08:14:49 AM 37.6039 -93.8686 184° South 275 316 18,100  Climbing Kansas City Center
Wed 08:15:51 AM 37.5289 -93.8822 188° South 275 316 18,000 -49 Descending Kansas City Center
Wed 08:16:52 AM 37.4561 -93.9003 191° South 270 311 18,000  Level Kansas City Center
Wed 08:17:53 AM 37.3836 -93.9250 195° South 269 310 18,000 49 Level Kansas City Center
Wed 08:18:54 AM 37.3122 -93.9539 198° South 268 308 18,100  Climbing Kansas City Center
Wed 08:19:56 AM 37.2431 -93.9839 199° South 266 306 18,000 -49 Descending Kansas City Center
Wed 08:20:57 AM 37.1733 -94.0172 201° Southwest 268 308 18,000  Level Kansas City Center
Wed 08:21:58 AM 37.1011 -94.0492 199° South 265 305 18,000 49 Level Kansas City Center
Wed 08:23:00 AM 37.0339 -94.0886 205° Southwest 266 306 18,100  Climbing Kansas City Center
Wed 08:24:01 AM 36.9658 -94.1214 201° Southwest 262 302 18,000 -98 Descending Kansas City Center
Wed 08:25:03 AM 36.8864 -94.1708 206° Southwest 265 305 17,900 -48 Descending Kansas City Center
Wed 08:26:05 AM 36.8225 -94.2219 213° Southwest 271 312 17,900 49 Level Kansas City Center
Wed 08:27:05 AM 36.7636 -94.2750 216° Southwest 264 304 18,000 49 Climbing Kansas City Center
Wed 08:28:07 AM 36.7078 -94.3303 218° Southwest 259 298 18,000  Level Kansas City Center
Wed 08:29:08 AM 36.6578 -94.3978 227° Southwest 262 302 18,000  Level Kansas City Center
Wed 08:30:10 AM 36.6117 -94.4669 230° Southwest 262 302 18,000 49 Level Kansas City Center
Wed 08:31:11 AM 36.5633 -94.5325 227° Southwest 258 297 18,100 49 Climbing Kansas City Center
Wed 08:32:13 AM 36.5100 -94.5931 222° Southwest 257 296 18,100 -98 Level Kansas City Center
Wed 08:33:14 AM 36.4558 -94.6514 221° Southwest 257 296 17,900 -98 Descending Kansas City Center
Wed 08:34:15 AM 36.4353 -94.7364 253° West 257 296 17,900 49 Level Kansas City Center
Wed 08:35:17 AM 36.4069 -94.8347 250° West 254 292 18,000 49 Climbing Kansas City Center
Wed 08:36:18 AM 36.3800 -94.9142 247° West 251 289 18,000  Level Kansas City Center
Wed 08:37:20 AM 36.3547 -94.9953 249° West 251 289 18,000 49 Level Kansas City Center
Wed 08:38:21 AM 36.3219 -95.0711 242° Southwest 256 295 18,100 -98 Climbing Kansas City Center
Wed 08:39:23 AM 36.2675 -95.1353 224° Southwest 256 295 17,800 -537 Descending Kansas City Center
Wed 08:40:24 AM 36.2233 -95.2097 234° Southwest 270 311 17,000 -780 Descending Kansas City Center
Wed 08:41:26 AM 36.1972 -95.2972 250° West 271 312 16,200 -537 Descending Kansas City Center
Wed 08:42:27 AM 36.1661 -95.3811 245° Southwest 269 310 15,900 -146 Descending Kansas City Center
Wed 08:43:29 AM 36.1394 -95.4622 248° West 261 300 15,900 49 Level Kansas City Center
Wed 08:44:30 AM 36.1150 -95.5419 249° West 255 293 16,000 49 Climbing Kansas City Center
Wed 08:45:31 AM 36.0850 -95.6172 244° Southwest 248 285 16,000  Level Kansas City Center
Wed 08:46:33 AM 36.0622 -95.6950 250° West 242 278 16,000 -49 Level Kansas City Center
Wed 08:47:34 AM 36.0319 -95.7875 248° West 242 278 15,900 -49 Descending Kansas City Center
Wed 08:48:36 AM 36.0042 -95.8644 246° West 244 281 15,900 49 Level Kansas City Center
Wed 08:49:37 AM 35.9764 -95.9408 246° West 244 281 16,000 49 Climbing Kansas City Center
Wed 08:50:38 AM 35.9506 -96.0169 247° West 242 278 16,000  Level Kansas City Center
Wed 08:51:40 AM 35.9247 -96.0953 248° West 244 281 16,000  Level Kansas City Center
Wed 08:52:41 AM 35.8983 -96.1717 247° West 244 281 16,000 -49 Level Kansas City Center
Wed 08:53:43 AM 35.8725 -96.2500 248° West 246 283 15,900 -49 Descending Kansas City Center
Wed 08:54:44 AM 35.8464 -96.3269 247° West 245 282 15,900  Level Kansas City Center
Wed 08:55:46 AM 35.8164 -96.4186 248° West 248 285 15,900 49 Level Kansas City Center
Wed 08:56:47 AM 35.7903 -96.4969 248° West 248 285 16,000 49 Climbing Kansas City Center
Wed 08:57:49 AM 35.7631 -96.5747 247° West 249 287 16,000  Level Kansas City Center
Wed 08:58:50 AM 35.7350 -96.6528 246° West 250 288 16,000  Level Kansas City Center
Wed 08:59:53 AM 35.7069 -96.7319 246° West 253 291 16,000  Level Kansas City Center
Wed 09:00:54 AM 35.6761 -96.8097 244° Southwest 254 292 16,000  Level Kansas City Center
Wed 09:01:56 AM 35.6417 -96.8861 241° Southwest 256 295 16,000 -47 Level Kansas City Center
Wed 09:03:02 AM 35.5639 -96.9517 214° Southwest 263 303 15,900  Descending Fort Worth Center
Wed 09:04:02 AM 35.5350 -97.0283 245° Southwest 263 303 16,000 50 Climbing Fort Worth Center
Wed 09:05:02 AM 35.5122 -97.1128 252° West 258 297 16,000  Level Fort Worth Center
Wed 09:06:02 AM 35.4853 -97.1917 247° West 258 297 16,000 -50 Level Fort Worth Center
Wed 09:07:02 AM 35.4625 -97.2683 250° West 258 297 15,900 -50 Descending Fort Worth Center
Wed 09:08:02 AM 35.4394 -97.3500 251° West 258 297 15,900 50 Level Fort Worth Center
Wed 09:09:02 AM 35.4083 -97.4339 246° West 263 303 16,000  Climbing Fort Worth Center
Wed 09:10:02 AM 35.3811 -97.5156 248° West 269 310 15,900  Descending Fort Worth Center
Wed 09:11:02 AM 35.3561 -97.5994 250° West 269 310 16,000 100 Climbing Fort Worth Center
Wed 09:12:02 AM 35.3289 -97.6808 248° West 269 310 16,100  Climbing Fort Worth Center
Wed 09:13:02 AM 35.3036 -97.7594 249° West 264 304 16,000 -50 Descending Fort Worth Center
Wed 09:14:02 AM 35.2783 -97.8408 249° West 264 304 16,000 -50 Level Fort Worth Center
Wed 09:15:02 AM 35.2489 -97.9219 246° West 264 304 15,900 -50 Descending Fort Worth Center
Wed 09:16:02 AM 35.2256 -98.0031 251° West 259 298 15,900  Level Fort Worth Center
Wed 09:17:02 AM 35.2000 -98.0817 248° West 259 298 15,900 50 Level Fort Worth Center
Wed 09:18:02 AM 35.1703 -98.1628 246° West 259 298 16,000 50 Climbing Fort Worth Center
Wed 09:19:02 AM 35.1428 -98.2439 248° West 259 298 16,000  Level Fort Worth Center
Wed 09:20:02 AM 35.1150 -98.3222 247° West 253 291 16,000  Level Fort Worth Center
Wed 09:21:02 AM 35.0894 -98.4006 248° West 253 291 16,000  Level Fort Worth Center
Wed 09:22:02 AM 35.0658 -98.4814 250° West 240 276 16,000 -50 Level Fort Worth Center
Wed 09:23:02 AM 35.0358 -98.5672 247° West 249 287 15,900 -50 Descending Fort Worth Center
Wed 09:24:02 AM 35.0081 -98.6406 245° Southwest 249 287 15,900  Level Fort Worth Center
Wed 09:25:02 AM 34.9842 -98.7236 251° West 254 292 15,900 50 Level Fort Worth Center
Wed 09:26:02 AM 34.9625 -98.7994 251° West 255 293 16,000 50 Climbing Fort Worth Center
Wed 09:27:02 AM 34.9303 -98.8825 245° Southwest 255 293 16,000 50 Level Fort Worth Center
Wed 09:28:02 AM 34.9108 -98.9531 251° West 248 285 16,100 100 Climbing Fort Worth Center
Wed 09:29:02 AM 34.8761 -99.0408 244° Southwest 264 304 16,200 50 Climbing Fort Worth Center
Wed 09:30:02 AM 34.8439 -99.1161 242° Southwest 264 304 16,200 -100 Level Fort Worth Center
Wed 09:31:02 AM 34.8181 -99.1839 245° Southwest 259 298 16,000 -100 Descending Fort Worth Center
Wed 09:32:02 AM 34.7917 -99.2669 249° West 259 298 16,000  Level Fort Worth Center
Wed 09:33:02 AM 34.7614 -99.3419 244° Southwest 244 281 16,000 50 Level Fort Worth Center
Wed 09:34:02 AM 34.7311 -99.4147 243° Southwest 249 287 16,100  Climbing Fort Worth Center
Wed 09:35:02 AM 34.7028 -99.4922 246° West 249 287 16,000  Descending Fort Worth Center
Wed 09:36:02 AM 34.6742 -99.5697 246° West 255 293 16,100 50 Climbing Fort Worth Center
Wed 09:37:02 AM 34.6458 -99.6397 244° Southwest 250 288 16,100 -50 Level Fort Worth Center
Wed 09:38:02 AM 34.6153 -99.7197 245° Southwest 250 288 16,000 -50 Descending Fort Worth Center
Wed 09:39:02 AM 34.5928 -99.8050 252° West 260 299 16,000  Level Fort Worth Center
Wed 09:40:02 AM 34.5664 -99.8697 244° Southwest 251 289 16,000  Level Fort Worth Center
Wed 09:41:02 AM 34.5378 -99.9444 245° Southwest 251 289 16,000  Level Fort Worth Center
Wed 09:42:02 AM 34.5050 -100.0242 244° Southwest 245 282 16,000  Level Fort Worth Center
Wed 09:43:02 AM 34.4742 -100.1014 244° Southwest 251 289 16,000 -50 Level Fort Worth Center
Wed 09:44:02 AM 34.4472 -100.1786 247° West 256 295 15,900  Descending Fort Worth Center
Wed 09:45:02 AM 34.4164 -100.2556 244° Southwest 256 295 16,000 50 Climbing Fort Worth Center
Wed 09:46:02 AM 34.3875 -100.3300 245° Southwest 256 295 16,000  Level Fort Worth Center
Wed 09:47:02 AM 34.3586 -100.4097 246° West 256 295 16,000  Level Fort Worth Center
Wed 09:48:02 AM 34.3342 -100.4717 244° Southwest 256 295 16,000  Level Fort Worth Center
Wed 09:49:02 AM 34.3006 -100.5636 246° West 256 295 16,000  Level Fort Worth Center
Wed 09:50:02 AM 34.2694 -100.6378 243° Southwest 251 289 16,000  Level Fort Worth Center
Wed 09:51:02 AM 34.2408 -100.6969 240° Southwest 256 295 16,000  Level Fort Worth Center
Wed 09:52:02 AM 34.2028 -100.7883 243° Southwest 256 295 16,000  Level Fort Worth Center
Wed 09:53:02 AM 34.1761 -100.8553 244° Southwest 261 300 16,000  Level Fort Worth Center
Wed 09:54:02 AM 34.1447 -100.9342 244° Southwest 255 293 16,000  Level Fort Worth Center
Wed 09:55:02 AM 34.1172 -101.0133 247° West 255 293 16,000  Level Fort Worth Center
Wed 09:56:02 AM 34.0839 -101.0872 241° Southwest 255 293 16,000  Level Fort Worth Center
Wed 09:56:49 AM 34.0611 -101.1464 245° Southwest 239 275 16,000 -59 Level Fort Worth Center
Wed 09:57:44 AM 34.0403 -101.2158 250° West 242 278 15,900 -82 Descending Fort Worth Center
Wed 09:58:02 AM 34.0314 -101.2353 241° Southwest 248 285 15,900 91 Level Fort Worth Center
Wed 09:58:50 AM 34.0044 -101.2942 241° Southwest 242 278 16,000 58 Climbing Fort Worth Center
Wed 09:59:45 AM 33.9775 -101.3583 243° Southwest 238 274 16,000  Level Fort Worth Center
Wed 10:00:02 AM 33.9706 -101.3778 247° West 242 278 16,000  Level Fort Worth Center
Wed 10:00:33 AM 33.9506 -101.4194 240° Southwest 236 272 16,000  Level Fort Worth Center
Wed 10:01:02 AM 33.9436 -101.4417 249° West 237 273 16,000  Level Fort Worth Center
Wed 10:01:34 AM 33.9233 -101.4883 242° Southwest 237 273 16,000  Level Fort Worth Center
Wed 10:02:02 AM 33.9119 -101.5203 247° West 237 273 16,000  Level Fort Worth Center
Wed 10:02:35 AM 33.8958 -101.5622 245° Southwest 240 276 16,000  Level Fort Worth Center
Wed 10:03:02 AM 33.8867 -101.5842 243° Southwest 237 273 16,000  Level Fort Worth Center
Wed 10:03:35 AM 33.8664 -101.6333 244° Southwest 240 276 16,000  Level Fort Worth Center
Wed 10:04:02 AM 33.8547 -101.6653 246° West 237 273 16,000  Level Fort Worth Center
Wed 10:04:30 AM 33.8392 -101.6994 241° Southwest 241 277 16,000  Level Fort Worth Center
Wed 10:05:02 AM 33.8278 -101.7264 243° Southwest 237 273 16,000  Level Fort Worth Center
Wed 10:05:31 AM 33.8072 -101.7728 242° Southwest 240 276 16,000 100 Level Fort Worth Center
Wed 10:06:02 AM 33.7956 -101.8072 248° West 242 278 16,100 100 Climbing Fort Worth Center
Wed 10:06:31 AM 33.7778 -101.8414 238° Southwest 235 270 16,100 -100 Level Fort Worth Center
Wed 10:07:02 AM 33.7681 -101.8783 252° West 237 273 16,000 -109 Descending Fort Worth Center
Wed 10:07:26 AM 33.7522 -101.9100 239° Southwest 237 273 16,000 -100 Level Fort Worth Center
Wed 10:08:02 AM 33.7408 -101.9419 247° West 237 273 15,900 -83 Descending Fort Worth Center
Wed 10:08:38 AM 33.7200 -101.9958 245° Southwest 239 275 15,900  Level Fort Worth Center
Wed 10:09:39 AM 33.6903 -102.0667 243° Southwest 237 273 15,900 52 Level Fort Worth Center
Wed 10:10:34 AM 33.6628 -102.1325 243° Southwest 237 273 16,000 52 Climbing Fort Worth Center
Wed 10:11:34 AM 33.6331 -102.1983 242° Southwest 231 266 16,000 -50 Level Fort Worth Center
Wed 10:12:35 AM 33.6053 -102.2689 245° Southwest 232 267 15,900  Descending Fort Worth Center
Wed 10:13:35 AM 33.5736 -102.3344 240° Southwest 229 264 16,000 61 Climbing Fort Worth Center
Wed 10:14:14 AM 33.5575 -102.3761 245° Southwest 228 262 16,000  Level Fort Worth Center
Wed 10:14:36 AM 33.5478 -102.4053 248° West 227 261 16,000 -100 Level Fort Worth Center
Wed 10:15:14 AM 33.5314 -102.4542 248° West 233 268 15,900 -61 Descending Fort Worth Center
Wed 10:16:14 AM 33.5039 -102.5150 242° Southwest 233 268 15,900  Level Fort Worth Center
Wed 10:17:14 AM 33.4717 -102.5828 240° Southwest 233 268 15,900  Level Fort Worth Center
Wed 10:18:14 AM 33.4464 -102.6436 244° Southwest 238 274 15,900  Level Fort Worth Center
Wed 10:19:14 AM 33.4206 -102.7092 245° Southwest 238 274 15,900  Level Fort Worth Center
Wed 10:20:14 AM 33.3922 -102.7847 246° West 238 274 15,900 50 Level Fort Worth Center
Wed 10:21:14 AM 33.3644 -102.8500 243° Southwest 233 268 16,000 50 Climbing Fort Worth Center
Wed 10:22:14 AM 33.3364 -102.9181 244° Southwest 233 268 16,000  Level Fort Worth Center
Wed 10:23:14 AM 33.3017 -102.9953 242° Southwest 240 276 16,000  Level Fort Worth Center
Wed 10:24:14 AM 33.2739 -103.0606 243° Southwest 240 276 16,000  Level Fort Worth Center
Wed 10:25:14 AM 33.2408 -103.1406 244° Southwest 240 276 16,000  Level Fort Worth Center
Wed 10:25:33 AM 33.2344 -103.1558 243° Southwest 238 274 16,000  Level Albuquerque Center
Wed 10:26:35 AM 33.2061 -103.2244 244° Southwest 236 272 16,000 -48 Level Albuquerque Center
Wed 10:27:37 AM 33.1783 -103.2958 245° Southwest 236 272 15,900  Descending Albuquerque Center
Wed 10:28:39 AM 33.1489 -103.3647 243° Southwest 236 272 16,000  Climbing Albuquerque Center
Wed 10:29:41 AM 33.1161 -103.4325 240° Southwest 235 270 15,900 48 Descending Albuquerque Center
Wed 10:30:43 AM 33.0781 -103.5169 242° Southwest 238 274 16,100 97 Climbing Albuquerque Center
Wed 10:31:45 AM 33.0492 -103.5886 244° Southwest 240 276 16,100  Level Albuquerque Center
Wed 10:32:47 AM 33.0214 -103.6606 245° Southwest 241 277 16,100 -49 Level Albuquerque Center
Wed 10:33:48 AM 32.9883 -103.7425 244° Southwest 239 275 16,000  Descending Albuquerque Center
Wed 10:34:50 AM 32.9822 -103.8181 265° West 246 283 16,100 48 Climbing Albuquerque Center
Wed 10:35:52 AM 32.9894 -103.9064 276° West 247 284 16,100 -48 Level Albuquerque Center
Wed 10:36:54 AM 32.9961 -103.9867 276° West 246 283 16,000 -48 Descending Albuquerque Center
Wed 10:37:56 AM 33.0064 -104.0678 279° West 247 284 16,000 -48 Level Albuquerque Center
Wed 10:38:58 AM 33.0192 -104.1544 280° West 249 287 15,900  Descending Albuquerque Center
Wed 10:40:00 AM 33.0300 -104.2353 279° West 248 285 16,000 48 Climbing Albuquerque Center
Wed 10:41:02 AM 33.0381 -104.3233 276° West 249 287 16,000 -48 Level Albuquerque Center
Wed 10:42:04 AM 33.0475 -104.4044 278° West 248 285 15,900  Descending Albuquerque Center
Wed 10:43:06 AM 33.0575 -104.4853 278° West 247 284 16,000  Climbing Albuquerque Center
Wed 10:44:08 AM 33.0681 -104.5711 278° West 244 281 15,900  Descending Albuquerque Center
Wed 10:45:10 AM 33.0750 -104.6497 276° West 239 275 16,000 48 Climbing Albuquerque Center
Wed 10:46:12 AM 33.0844 -104.7347 278° West 241 277 16,000 -48 Level Albuquerque Center
Wed 10:47:14 AM 33.0833 -104.8122 269° West 242 278 15,900  Descending Albuquerque Center
Wed 10:48:16 AM 33.0261 -104.8619 216° Southwest 241 277 16,000  Climbing Albuquerque Center
Wed 10:49:18 AM 32.9778 -104.9158 223° Southwest 238 274 15,900  Descending Albuquerque Center
Wed 10:50:20 AM 32.9294 -104.9683 222° Southwest 236 272 16,000  Climbing Albuquerque Center
Wed 10:52:24 AM 32.8236 -105.0703 219° Southwest 237 273 15,900  Descending Albuquerque Center
Wed 10:53:26 AM 32.7692 -105.1197 217° Southwest 231 266 16,000 48 Climbing Albuquerque Center
Wed 10:54:28 AM 32.7125 -105.1594 211° Southwest 235 270 16,000 48 Level Albuquerque Center
Wed 10:55:30 AM 32.6572 -105.2047 215° Southwest 236 272 16,100  Climbing Albuquerque Center
Wed 10:56:33 AM 32.6047 -105.2492 215° Southwest 234 269 16,000 -96 Descending Albuquerque Center
Wed 10:57:35 AM 32.5483 -105.2953 215° Southwest 242 278 15,900  Descending Albuquerque Center
Wed 10:58:37 AM 32.4981 -105.3442 219° Southwest 238 274 16,000 48 Climbing Albuquerque Center
Wed 10:59:39 AM 32.4486 -105.3922 219° Southwest 233 268 16,000  Level Albuquerque Center
Wed 11:00:41 AM 32.3817 -105.4450 214° Southwest 240 276 16,000 -48 Level Albuquerque Center
Wed 11:01:43 AM 32.3331 -105.4956 221° Southwest 236 272 15,900  Descending Albuquerque Center
Wed 11:02:45 AM 32.2833 -105.5442 220° Southwest 233 268 16,000 97 Climbing Albuquerque Center
Wed 11:03:47 AM 32.2317 -105.5906 217° Southwest 233 268 16,100 48 Climbing Albuquerque Center
Wed 11:04:49 AM 32.1844 -105.6433 223° Southwest 233 268 16,100  Level Albuquerque Center
Wed 11:05:51 AM 32.1342 -105.6925 220° Southwest 235 270 16,100 -290 Level Albuquerque Center
Wed 11:06:53 AM 32.0694 -105.7514 218° Southwest 247 284 15,500 -744 Descending Albuquerque Center
Wed 11:08:00 AM 32.0069 -105.8081 218° Southwest 256 295 14,500 -726 Descending Albuquerque Center
Wed 11:08:57 AM 31.9581 -105.8550 219° Southwest 255 293 14,000 -706 Descending Albuquerque Center
Wed 11:09:59 AM 31.9533 -105.9456 267° West 256 295 13,100 -968 Descending Albuquerque Center
Wed 11:11:01 AM 31.9692 -106.0306 282° West 265 305 12,000 -1,355 Descending Albuquerque Center
Wed 11:12:03 AM 31.9783 -106.1161 277° West 268 308 10,300 -1,645 Descending Albuquerque Center
Wed 11:13:05 AM 31.9856 -106.1858 277° West 216 249 8,600 -1,839 Descending Albuquerque Center
Wed 11:14:07 AM 31.9764 -106.2503 260° West 187 215 6,500 -1,306 Descending Albuquerque Center
Wed 11:15:09 AM 31.9242 -106.2622 191° South 190 219 5,900 -458 Descending Albuquerque Center
Wed 11:16:05 AM 31.8808 -106.2833 202° Southwest 207 238 5,600 -581 Descending Albuquerque Center
Wed 11:17:13 AM 31.8522 -106.3275 233° Southwest 178 205 4,700 -574 Descending Albuquerque Center
Wed 11:18:00 AM 31.8325 -106.3578 233° Southwest 151 174 4,500 -667 Descending Albuquerque Center
Wed 11:18:16 AM 31.8239 -106.3667 221° Southwest 128 147 4,000 -1,875 Descending Albuquerque Center
Wed 11:20:00 AM 31.8000 -106.3667 270° West  Level FlightAware Approximate
Wed 11:27:00 AM 31.8072 -106.3764 270° West  Level Estimated
Wed 11:28:00 AM 31.8072 -106.3764 270° West  Level Estimated
Wed 11:29:00 AM 31.8072 -106.3764 270° West  Level Estimated
Wed 11:30:00 AM 31.8072 -106.3764 270° West  Level Estimated

Login

Don't have an account? Register now (free) for customized features, flight alerts, and more!